Time;durP1;ratioP1;P1;durP2;ratioP2;P2;SDS_P1;SDS_P2;PMS_P1;PMS_P2;Temp;Humidity;BMP_temperature;BMP_pressure;BME280_temperature;BME280_humidity;BME280_pressure;Samples;Min_cycle;Max_cycle;Signal;HPM_P1;HPM_P2
2022/05/23 00:02:03;;;;;;;;;;;20.60;96.60;;;;;;6064502;23;19902;-89
2022/05/23 00:04:29;;;;;;;;;;;20.60;96.60;;;;;;6064545;23;19924;-90
2022/05/23 00:06:55;;;;;;;;;;;20.60;96.60;;;;;;6064499;23;19909;-89
2022/05/23 00:09:21;;;;;;;;;;;20.50;96.50;;;;;;6064483;23;20330;-89
2022/05/23 00:11:47;;;;;;;;;;;20.50;96.50;;;;;;6064378;23;19906;-89
2022/05/23 00:14:13;;;;;;;;;;;20.50;96.50;;;;;;6063819;23;19902;-90
2022/05/23 00:16:43;;;;;;;;;;;20.50;96.40;;;;;;6064857;23;19905;-90
2022/05/23 00:19:09;;;;;;;;;;;20.50;96.40;;;;;;6064455;23;19902;-90
2022/05/23 00:21:40;;;;;;;;;;;20.50;96.40;;;;;;6066027;23;19901;-90
2022/05/23 00:24:06;;;;;;;;;;;20.50;96.40;;;;;;6064927;23;19902;-90
2022/05/23 00:26:32;;;;;;;;;;;20.50;96.40;;;;;;6066008;23;19905;-90
2022/05/23 00:28:57;;;;;;;;;;;20.50;96.40;;;;;;6064527;23;19951;-89
2022/05/23 00:31:23;;;;;;;;;;;20.50;96.40;;;;;;6064375;23;19902;-90
2022/05/23 00:36:33;;;;;;;;;;;20.40;96.40;;;;;;6066071;23;19992;-90
2022/05/23 00:38:59;;;;;;;;;;;20.40;96.40;;;;;;6064114;23;20237;-90
2022/05/23 00:44:16;;;;;;;;;;;20.40;96.40;;;;;;6066135;23;19908;-89
2022/05/23 00:46:51;;;;;;;;;;;20.40;96.40;;;;;;6064479;23;19901;-90
2022/05/23 00:49:22;;;;;;;;;;;20.40;96.40;;;;;;6064798;23;19908;-90
2022/05/23 00:51:47;;;;;;;;;;;20.40;96.40;;;;;;6064341;23;19909;-90
2022/05/23 00:54:14;;;;;;;;;;;20.30;96.40;;;;;;6064379;23;19908;-90
2022/05/23 00:56:44;;;;;;;;;;;20.30;96.40;;;;;;6065318;23;19906;-89
2022/05/23 00:59:12;;;;;;;;;;;20.30;96.40;;;;;;6069069;23;20262;-89
2022/05/23 01:01:38;;;;;;;;;;;20.30;96.30;;;;;;6068635;23;19924;-89
2022/05/23 01:04:07;;;;;;;;;;;20.30;96.30;;;;;;6068759;23;20011;-89
2022/05/23 01:06:33;;;;;;;;;;;20.30;96.30;;;;;;6068973;23;20245;-89
2022/05/23 01:08:59;;;;;;;;;;;20.30;96.30;;;;;;6068995;23;20031;-89
2022/05/23 01:11:25;;;;;;;;;;;20.30;96.30;;;;;;6068783;23;19902;-89
2022/05/23 01:13:53;;;;;;;;;;;20.30;96.30;;;;;;6068851;23;19901;-89
2022/05/23 01:16:20;;;;;;;;;;;20.20;96.30;;;;;;6068541;23;19939;-89
2022/05/23 01:18:45;;;;;;;;;;;20.20;96.30;;;;;;6068756;23;19983;-90
2022/05/23 01:21:14;;;;;;;;;;;20.20;96.30;;;;;;6068807;23;20306;-89
2022/05/23 01:23:43;;;;;;;;;;;20.20;96.30;;;;;;6068829;23;19988;-89
2022/05/23 01:26:09;;;;;;;;;;;20.20;96.30;;;;;;6069562;23;19940;-89
2022/05/23 01:28:38;;;;;;;;;;;20.20;96.40;;;;;;6068692;23;19901;-89
2022/05/23 01:31:04;;;;;;;;;;;20.10;96.40;;;;;;6068614;23;19905;-89
2022/05/23 01:33:30;;;;;;;;;;;20.20;96.40;;;;;;6068467;23;20085;-89
2022/05/23 01:35:57;;;;;;;;;;;20.20;96.40;;;;;;6068991;23;19932;-89
2022/05/23 01:38:23;;;;;;;;;;;20.20;96.40;;;;;;6067769;23;19901;-89
2022/05/23 01:40:49;;;;;;;;;;;20.20;96.40;;;;;;6069537;23;20356;-89
2022/05/23 01:43:15;;;;;;;;;;;20.20;96.40;;;;;;6068704;23;19901;-89
2022/05/23 01:45:41;;;;;;;;;;;20.10;96.40;;;;;;6068595;23;19959;-89
2022/05/23 01:48:07;;;;;;;;;;;20.10;96.40;;;;;;6068641;23;19902;-90
2022/05/23 01:50:32;;;;;;;;;;;20.10;96.40;;;;;;6068805;23;19908;-89
2022/05/23 01:52:58;;;;;;;;;;;20.10;96.40;;;;;;6070453;23;20315;-90
2022/05/23 01:55:24;;;;;;;;;;;20.10;96.40;;;;;;6069739;23;20229;-90
2022/05/23 01:57:49;;;;;;;;;;;20.10;96.40;;;;;;6069368;23;20349;-90
2022/05/23 02:03:00;;;;;;;;;;;20.10;96.40;;;;;;6095339;23;19951;-89
2022/05/23 02:05:26;;;;;;;;;;;20.00;96.30;;;;;;6069743;23;19913;-89
2022/05/23 02:07:53;;;;;;;;;;;20.00;96.40;;;;;;6069631;23;20276;-90
2022/05/23 02:10:19;;;;;;;;;;;20.00;96.40;;;;;;6069725;23;19909;-89
2022/05/23 02:12:45;;;;;;;;;;;20.00;96.70;;;;;;6069714;23;19908;-89
2022/05/23 02:15:10;;;;;;;;;;;20.00;96.40;;;;;;6068927;23;19905;-90
2022/05/23 02:17:36;;;;;;;;;;;20.00;96.50;;;;;;6069519;23;19952;-90
2022/05/23 02:20:02;;;;;;;;;;;20.00;96.50;;;;;;6069739;23;19901;-89
2022/05/23 02:22:28;;;;;;;;;;;20.00;96.50;;;;;;6070803;23;19902;-89
2022/05/23 02:24:53;;;;;;;;;;;19.90;96.40;;;;;;6070053;23;19908;-89
2022/05/23 02:27:19;;;;;;;;;;;19.90;96.80;;;;;;6070027;23;19905;-89
2022/05/23 02:29:45;;;;;;;;;;;19.90;96.40;;;;;;6069394;23;20207;-89
2022/05/23 02:32:10;;;;;;;;;;;19.90;96.40;;;;;;6069866;23;19905;-89
2022/05/23 02:34:36;;;;;;;;;;;19.90;96.50;;;;;;6069501;23;20333;-88
2022/05/23 02:37:01;;;;;;;;;;;19.90;96.50;;;;;;6069610;23;19908;-89
2022/05/23 02:39:28;;;;;;;;;;;19.90;96.60;;;;;;6069700;23;19901;-89
2022/05/23 02:41:53;;;;;;;;;;;19.90;96.60;;;;;;6069333;23;20269;-89
2022/05/23 02:44:19;;;;;;;;;;;19.90;96.60;;;;;;6069891;23;19916;-89
2022/05/23 02:46:45;;;;;;;;;;;19.90;96.60;;;;;;6069116;23;19908;-89
2022/05/23 02:49:11;;;;;;;;;;;19.90;96.60;;;;;;6070100;23;19959;-89
2022/05/23 02:51:37;;;;;;;;;;;19.90;96.70;;;;;;6069612;23;20225;-90
2022/05/23 02:54:03;;;;;;;;;;;19.80;96.60;;;;;;6070205;23;19976;-89
2022/05/23 02:56:28;;;;;;;;;;;19.90;96.70;;;;;;6070109;23;19905;-90
2022/05/23 02:58:54;;;;;;;;;;;19.80;96.70;;;;;;6069627;23;20389;-88
2022/05/23 03:01:20;;;;;;;;;;;19.80;96.70;;;;;;6070230;23;19905;-89
2022/05/23 03:03:45;;;;;;;;;;;19.80;96.70;;;;;;6069142;23;19955;-89
2022/05/23 03:06:11;;;;;;;;;;;19.80;96.70;;;;;;6069856;23;19901;-89
2022/05/23 03:08:37;;;;;;;;;;;19.80;96.70;;;;;;6069655;23;19909;-89
2022/05/23 03:11:04;;;;;;;;;;;19.80;96.80;;;;;;6069279;23;20244;-89
2022/05/23 03:13:30;;;;;;;;;;;19.80;96.80;;;;;;6070197;23;19908;-89
2022/05/23 03:15:56;;;;;;;;;;;19.80;96.80;;;;;;6069653;23;19909;-89
2022/05/23 03:18:24;;;;;;;;;;;19.80;96.90;;;;;;6069927;23;19950;-89
2022/05/23 03:20:56;;;;;;;;;;;19.80;96.90;;;;;;6069376;23;19908;-89
2022/05/23 03:28:50;;;;;;;;;;;19.70;96.90;;;;;;6095026;23;19911;-90
2022/05/23 03:31:16;;;;;;;;;;;19.80;97.00;;;;;;6070822;23;20290;-90
2022/05/23 03:33:41;;;;;;;;;;;19.70;97.00;;;;;;6069789;23;20236;-90
2022/05/23 03:36:08;;;;;;;;;;;19.70;97.00;;;;;;6069758;23;19932;-91
2022/05/23 03:38:35;;;;;;;;;;;19.70;97.10;;;;;;6069691;23;20318;-91
2022/05/23 03:41:08;;;;;;;;;;;19.70;97.10;;;;;;6069819;23;20336;-89
2022/05/23 03:43:35;;;;;;;;;;;19.70;97.10;;;;;;6095384;23;19902;-90
2022/05/23 03:46:05;;;;;;;;;;;19.70;97.10;;;;;;6069834;23;20359;-89
2022/05/23 03:48:31;;;;;;;;;;;19.70;97.20;;;;;;6069914;23;19905;-90
2022/05/23 03:50:56;;;;;;;;;;;19.70;97.20;;;;;;6069390;23;19906;-90
2022/05/23 03:53:22;;;;;;;;;;;19.70;97.30;;;;;;6069436;23;20371;-90
2022/05/23 03:55:49;;;;;;;;;;;19.70;97.40;;;;;;6069672;23;20332;-89
2022/05/23 03:58:15;;;;;;;;;;;19.70;97.40;;;;;;6069251;23;19898;-90
2022/05/23 04:00:43;;;;;;;;;;;19.70;97.50;;;;;;6070012;23;19905;-89
2022/05/23 04:03:09;;;;;;;;;;;19.70;97.50;;;;;;6068993;23;20318;-91
2022/05/23 04:05:35;;;;;;;;;;;19.70;97.60;;;;;;6069164;23;19976;-89
2022/05/23 04:08:00;;;;;;;;;;;19.70;97.50;;;;;;6069321;23;19928;-90
2022/05/23 04:10:26;;;;;;;;;;;19.70;97.50;;;;;;6069707;23;19901;-90
2022/05/23 04:12:51;;;;;;;;;;;19.70;97.40;;;;;;6069417;23;19901;-90
2022/05/23 04:15:17;;;;;;;;;;;19.70;97.50;;;;;;6069385;23;19905;-91
2022/05/23 04:17:43;;;;;;;;;;;19.70;97.50;;;;;;6069909;23;20369;-90
2022/05/23 04:20:10;;;;;;;;;;;19.70;97.50;;;;;;6069644;23;20337;-89
2022/05/23 04:22:36;;;;;;;;;;;19.70;97.60;;;;;;6069636;23;19967;-90
2022/05/23 04:25:02;;;;;;;;;;;19.70;97.60;;;;;;6069075;23;20301;-90
2022/05/23 04:27:28;;;;;;;;;;;19.70;97.70;;;;;;6069029;23;19901;-90
2022/05/23 04:29:54;;;;;;;;;;;19.70;98.00;;;;;;6045585;23;20237;-90
2022/05/23 04:35:13;;;;;;;;;;;19.70;98.90;;;;;;6095013;23;19911;-91
2022/05/23 04:37:49;;;;;;;;;;;19.70;99.20;;;;;;6069300;23;19905;-91
2022/05/23 04:40:19;;;;;;;;;;;19.70;99.50;;;;;;6069545;23;19908;-91
2022/05/23 04:42:45;;;;;;;;;;;19.60;99.70;;;;;;6069375;23;19924;-91
2022/05/23 04:45:11;;;;;;;;;;;19.60;99.90;;;;;;6069353;23;20306;-91
2022/05/23 04:50:21;;;;;;;;;;;19.60;99.90;;;;;;6094622;23;19927;-92
2022/05/23 04:52:47;;;;;;;;;;;19.60;99.90;;;;;;6069629;23;19987;-92
2022/05/23 04:55:14;;;;;;;;;;;19.60;99.90;;;;;;6069179;23;19916;-92
2022/05/23 04:57:40;;;;;;;;;;;19.60;99.90;;;;;;6069633;23;19917;-91
2022/05/23 05:00:07;;;;;;;;;;;19.60;99.90;;;;;;6069903;23;19947;-91
2022/05/23 05:02:34;;;;;;;;;;;19.60;99.90;;;;;;6069428;23;20334;-91
2022/05/23 05:04:59;;;;;;;;;;;19.60;99.90;;;;;;6069460;23;20234;-92
2022/05/23 05:07:25;;;;;;;;;;;19.60;99.90;;;;;;6069535;23;19947;-92
2022/05/23 05:09:50;;;;;;;;;;;19.60;99.90;;;;;;6070242;23;19924;-92
2022/05/23 05:12:16;;;;;;;;;;;19.60;99.90;;;;;;6069670;23;20288;-92
2022/05/23 05:14:42;;;;;;;;;;;19.60;99.90;;;;;;6069829;23;19901;-92
2022/05/23 05:17:07;;;;;;;;;;;19.60;99.90;;;;;;6069982;23;19901;-92
2022/05/23 05:19:33;;;;;;;;;;;19.60;99.90;;;;;;6069345;23;19909;-92
2022/05/23 05:21:59;;;;;;;;;;;19.60;99.90;;;;;;6069244;23;19901;-92
2022/05/23 05:24:24;;;;;;;;;;;19.60;99.90;;;;;;6069306;23;19976;-93
2022/05/23 05:26:50;;;;;;;;;;;19.60;99.90;;;;;;6070739;23;19906;-93
2022/05/23 05:29:16;;;;;;;;;;;19.60;99.90;;;;;;6070878;23;19976;-92
2022/05/23 05:31:57;;;;;;;;;;;19.60;99.90;;;;;;6070569;23;19937;-93
2022/05/23 05:34:30;;;;;;;;;;;19.60;99.90;;;;;;6071835;23;19908;-91
2022/05/23 05:36:59;;;;;;;;;;;19.60;99.90;;;;;;6071280;23;19910;-92
2022/05/23 05:39:27;;;;;;;;;;;19.60;99.90;;;;;;6070487;23;20229;-92
2022/05/23 05:41:56;;;;;;;;;;;19.60;99.90;;;;;;6070945;23;19998;-92
2022/05/23 05:44:25;;;;;;;;;;;19.60;99.90;;;;;;6071754;23;19915;-92
2022/05/23 05:46:54;;;;;;;;;;;19.60;99.90;;;;;;6070980;23;20219;-92
2022/05/23 05:49:22;;;;;;;;;;;19.60;99.90;;;;;;6072032;23;19984;-92
2022/05/23 05:51:48;;;;;;;;;;;19.60;99.90;;;;;;6070848;23;19912;-92
2022/05/23 05:54:16;;;;;;;;;;;19.70;99.90;;;;;;6072887;23;19938;-92
2022/05/23 05:56:43;;;;;;;;;;;19.60;99.90;;;;;;6071687;23;19905;-93
2022/05/23 05:59:09;;;;;;;;;;;19.70;99.90;;;;;;6071358;23;19905;-92
2022/05/23 06:01:34;;;;;;;;;;;19.70;99.90;;;;;;6070914;23;20229;-92
2022/05/23 06:04:00;;;;;;;;;;;19.70;99.90;;;;;;6072466;23;19933;-92
2022/05/23 06:12:10;;;;;;;;;;;19.80;99.90;;;;;;6094391;23;19951;-91
2022/05/23 06:14:36;;;;;;;;;;;19.70;99.90;;;;;;6070660;23;19905;-92
2022/05/23 06:17:05;;;;;;;;;;;19.70;99.90;;;;;;6071618;23;19944;-92
2022/05/23 06:19:36;;;;;;;;;;;19.80;99.90;;;;;;6070791;23;19905;-91
2022/05/23 06:22:03;;;;;;;;;;;19.80;99.90;;;;;;6070805;23;19928;-91
2022/05/23 06:24:29;;;;;;;;;;;19.80;99.90;;;;;;6070687;23;19976;-91
2022/05/23 06:26:54;;;;;;;;;;;19.80;99.90;;;;;;6070501;23;19936;-92
2022/05/23 06:29:20;;;;;;;;;;;19.80;99.90;;;;;;6070484;23;19912;-92
2022/05/23 06:31:47;;;;;;;;;;;19.90;99.90;;;;;;6070571;23;19908;-91
2022/05/23 06:34:13;;;;;;;;;;;19.90;99.90;;;;;;6071036;23;20382;-91
2022/05/23 06:36:39;;;;;;;;;;;19.90;99.90;;;;;;6070975;23;19906;-92
2022/05/23 06:39:04;;;;;;;;;;;19.90;99.90;;;;;;6070442;23;19905;-91
2022/05/23 06:41:30;;;;;;;;;;;19.90;99.90;;;;;;6070904;23;20428;-92
2022/05/23 06:43:55;;;;;;;;;;;19.90;99.90;;;;;;6070754;23;19905;-92
2022/05/23 06:46:21;;;;;;;;;;;20.00;99.90;;;;;;6072488;23;19968;-93
2022/05/23 06:48:46;;;;;;;;;;;20.00;99.90;;;;;;6070718;23;20373;-91
2022/05/23 06:51:12;;;;;;;;;;;20.00;99.90;;;;;;6071561;23;19901;-93
2022/05/23 06:53:38;;;;;;;;;;;20.00;99.90;;;;;;6071807;23;19955;-92
2022/05/23 06:56:03;;;;;;;;;;;20.00;99.90;;;;;;6070736;23;19912;-91
2022/05/23 06:58:29;;;;;;;;;;;20.00;99.90;;;;;;6065687;23;19914;-92
2022/05/23 07:00:55;;;;;;;;;;;20.00;99.90;;;;;;6066597;23;19909;-92
2022/05/23 07:03:21;;;;;;;;;;;20.00;99.90;;;;;;6066823;23;19906;-91
2022/05/23 07:14:02;;;;;;;;;;;20.00;99.90;;;;;;6067308;23;19924;-90
2022/05/23 07:16:29;;;;;;;;;;;20.00;99.90;;;;;;6066870;23;19910;-93
2022/05/23 07:18:58;;;;;;;;;;;20.10;99.90;;;;;;6066608;23;19941;-95
2022/05/23 07:21:26;;;;;;;;;;;20.10;99.90;;;;;;6066131;23;19901;-92
2022/05/23 07:23:52;;;;;;;;;;;20.00;99.90;;;;;;6065360;23;19902;-92
2022/05/23 07:26:19;;;;;;;;;;;20.00;99.90;;;;;;6067023;23;19906;-91
2022/05/23 07:28:45;;;;;;;;;;;20.00;99.90;;;;;;6066628;23;20337;-94
2022/05/23 07:31:11;;;;;;;;;;;20.10;99.90;;;;;;6067063;23;19909;-91
2022/05/23 07:33:39;;;;;;;;;;;20.00;99.90;;;;;;6065733;23;19988;-91
2022/05/23 07:36:05;;;;;;;;;;;20.00;99.90;;;;;;6067150;23;20326;-92
2022/05/23 07:38:31;;;;;;;;;;;20.00;99.90;;;;;;6065853;23;19905;-92
2022/05/23 07:40:58;;;;;;;;;;;20.10;99.90;;;;;;6066287;23;19985;-92
2022/05/23 07:43:23;;;;;;;;;;;20.00;99.90;;;;;;6065490;23;19902;-92
2022/05/23 07:45:50;;;;;;;;;;;20.10;99.90;;;;;;6065631;23;19902;-91
2022/05/23 07:48:16;;;;;;;;;;;20.00;99.90;;;;;;6065363;23;19924;-91
2022/05/23 07:50:43;;;;;;;;;;;20.00;99.90;;;;;;6066268;23;19902;-90
2022/05/23 08:01:21;;;;;;;;;;;20.10;99.90;;;;;;6095852;23;20028;-89
2022/05/23 08:03:47;;;;;;;;;;;20.00;99.90;;;;;;6070470;23;20317;-93
2022/05/23 08:06:13;;;;;;;;;;;20.10;99.90;;;;;;6073210;23;19908;-91
2022/05/23 08:08:39;;;;;;;;;;;20.10;99.90;;;;;;6071003;23;20393;-91
2022/05/23 08:11:13;;;;;;;;;;;20.10;99.90;;;;;;6071992;23;19901;-92
2022/05/23 08:13:39;;;;;;;;;;;20.10;99.90;;;;;;6071350;23;19902;-92
2022/05/23 08:16:05;;;;;;;;;;;20.10;99.90;;;;;;6070383;23;20352;-91
2022/05/23 08:18:30;;;;;;;;;;;20.10;99.90;;;;;;6071324;23;19909;-91
2022/05/23 08:20:57;;;;;;;;;;;20.10;99.90;;;;;;6070290;23;20301;-91
2022/05/23 08:23:22;;;;;;;;;;;20.10;99.90;;;;;;6070641;23;19908;-91
2022/05/23 08:25:48;;;;;;;;;;;20.20;99.90;;;;;;6070088;23;19980;-92
2022/05/23 08:28:14;;;;;;;;;;;20.20;99.90;;;;;;6070274;23;20365;-91
2022/05/23 08:30:40;;;;;;;;;;;20.20;99.90;;;;;;6070680;23;19909;-90
2022/05/23 08:33:05;;;;;;;;;;;20.20;99.90;;;;;;6070498;23;19908;-92
2022/05/23 08:35:31;;;;;;;;;;;20.20;99.90;;;;;;6071005;23;19905;-91
2022/05/23 08:37:58;;;;;;;;;;;20.20;99.90;;;;;;6070228;23;19984;-91
2022/05/23 08:40:29;;;;;;;;;;;20.20;99.90;;;;;;6070946;23;19901;-92
2022/05/23 08:42:56;;;;;;;;;;;20.20;99.90;;;;;;6070335;23;20337;-93
2022/05/23 08:45:37;;;;;;;;;;;20.20;99.90;;;;;;6070551;23;19980;-91
2022/05/23 08:48:02;;;;;;;;;;;20.20;99.90;;;;;;6071282;23;20378;-91
2022/05/23 08:50:34;;;;;;;;;;;20.30;99.90;;;;;;6070606;23;19901;-93
2022/05/23 08:53:07;;;;;;;;;;;20.20;99.90;;;;;;6074403;23;19902;-94
2022/05/23 08:55:36;;;;;;;;;;;20.20;99.90;;;;;;6072109;23;20215;-91
2022/05/23 08:58:05;;;;;;;;;;;20.20;99.90;;;;;;6069233;23;19936;-90
2022/05/23 09:00:35;;;;;;;;;;;20.10;99.90;;;;;;6068547;23;20005;-90
2022/05/23 09:03:04;;;;;;;;;;;20.10;99.90;;;;;;6069490;23;19981;-94
2022/05/23 09:05:32;;;;;;;;;;;20.10;99.90;;;;;;6070086;23;19908;-91
2022/05/23 09:07:59;;;;;;;;;;;20.00;99.90;;;;;;6070292;23;19905;-92
2022/05/23 09:10:24;;;;;;;;;;;20.00;99.90;;;;;;6070103;23;19986;-92
2022/05/23 09:12:52;;;;;;;;;;;20.10;99.90;;;;;;6071163;23;19905;-94
2022/05/23 09:15:18;;;;;;;;;;;20.00;99.90;;;;;;6069972;23;19906;-91
2022/05/23 09:17:44;;;;;;;;;;;20.00;99.90;;;;;;6070287;23;19908;-91
2022/05/23 09:20:16;;;;;;;;;;;20.00;99.90;;;;;;6069891;23;20233;-91
2022/05/23 09:22:45;;;;;;;;;;;20.10;99.90;;;;;;6069906;23;19933;-92
2022/05/23 09:25:12;;;;;;;;;;;20.10;99.90;;;;;;6070546;23;19948;-91
2022/05/23 09:27:58;;;;;;;;;;;20.00;99.90;;;;;;6070528;23;19902;-92
2022/05/23 09:30:26;;;;;;;;;;;20.10;99.90;;;;;;6067605;23;19932;-91
2022/05/23 09:32:55;;;;;;;;;;;20.10;99.90;;;;;;6070760;23;19909;-90
2022/05/23 09:35:46;;;;;;;;;;;20.10;99.90;;;;;;6069256;23;19905;-91
2022/05/23 09:38:17;;;;;;;;;;;20.10;99.90;;;;;;6069203;23;19908;-91
2022/05/23 09:40:43;;;;;;;;;;;20.20;99.90;;;;;;6069119;23;19902;-90
2022/05/23 09:49:14;;;;;;;;;;;20.20;99.90;;;;;;6095276;23;19955;-91
2022/05/23 09:51:59;;;;;;;;;;;20.20;99.90;;;;;;6069568;23;19901;-90
2022/05/23 09:54:27;;;;;;;;;;;20.20;99.90;;;;;;6069282;23;19907;-91
2022/05/23 09:56:54;;;;;;;;;;;20.10;99.90;;;;;;6068756;23;19960;-91
2022/05/23 09:59:25;;;;;;;;;;;20.10;99.90;;;;;;6069013;23;19905;-90
2022/05/23 10:01:52;;;;;;;;;;;20.20;99.90;;;;;;6069786;23;19905;-90
2022/05/23 10:04:22;;;;;;;;;;;20.10;99.90;;;;;;6071629;23;20294;-90
2022/05/23 10:06:50;;;;;;;;;;;20.10;99.90;;;;;;6069177;23;19940;-90
2022/05/23 10:09:42;;;;;;;;;;;20.00;99.90;;;;;;6068664;23;19908;-89
2022/05/23 10:12:08;;;;;;;;;;;20.10;99.90;;;;;;6065864;23;19901;-90
2022/05/23 10:14:57;;;;;;;;;;;20.00;99.90;;;;;;6069596;23;19901;-90
2022/05/23 10:17:24;;;;;;;;;;;20.00;99.90;;;;;;6069248;23;19905;-89
2022/05/23 10:19:50;;;;;;;;;;;20.10;99.90;;;;;;6069669;23;19902;-90
2022/05/23 10:22:23;;;;;;;;;;;20.00;99.90;;;;;;6069648;23;19972;-90
2022/05/23 10:24:53;;;;;;;;;;;20.00;99.90;;;;;;6070034;23;19905;-90
2022/05/23 10:27:42;;;;;;;;;;;20.00;99.90;;;;;;6069849;23;19941;-90
2022/05/23 10:30:09;;;;;;;;;;;20.00;99.90;;;;;;6083880;23;19901;-90
2022/05/23 10:32:34;;;;;;;;;;;20.00;99.90;;;;;;6069916;23;19901;-90
2022/05/23 10:35:17;;;;;;;;;;;20.00;99.90;;;;;;6069352;23;20122;-90
2022/05/23 10:37:44;;;;;;;;;;;20.00;99.90;;;;;;6069924;23;19901;-90
2022/05/23 10:42:58;;;;;;;;;;;19.90;99.90;;;;;;6095329;23;20345;-93
2022/05/23 10:45:24;;;;;;;;;;;19.90;99.90;;;;;;6069761;23;19936;-90
2022/05/23 10:47:49;;;;;;;;;;;19.90;99.90;;;;;;6095306;23;19908;-90
2022/05/23 10:50:15;;;;;;;;;;;19.90;99.90;;;;;;6071042;23;19901;-90
2022/05/23 10:52:46;;;;;;;;;;;19.90;99.90;;;;;;6070599;23;19905;-90
2022/05/23 10:55:11;;;;;;;;;;;19.80;99.90;;;;;;6070149;23;19909;-91
2022/05/23 10:57:46;;;;;;;;;;;19.90;99.90;;;;;;6069891;23;19916;-90
2022/05/23 11:00:19;;;;;;;;;;;19.80;99.90;;;;;;6069906;23;20369;-91
2022/05/23 11:02:44;;;;;;;;;;;19.80;99.90;;;;;;6070159;23;19902;-91
2022/05/23 11:05:22;;;;;;;;;;;19.80;99.90;;;;;;6069671;23;19916;-90
2022/05/23 11:07:57;;;;;;;;;;;19.80;99.90;;;;;;6071049;23;20274;-91
2022/05/23 11:10:35;;;;;;;;;;;19.80;99.90;;;;;;6070804;23;19984;-93
2022/05/23 11:13:24;;;;;;;;;;;19.70;99.90;;;;;;6073358;23;20370;-93
2022/05/23 11:16:12;;;;;;;;;;;19.70;99.90;;;;;;6072191;23;19931;-92
2022/05/23 11:18:37;;;;;;;;;;;19.70;99.90;;;;;;6070830;23;19908;-90
2022/05/23 11:21:05;;;;;;;;;;;19.70;99.90;;;;;;6070595;23;19901;-91
2022/05/23 11:23:34;;;;;;;;;;;19.70;99.90;;;;;;6069942;23;19971;-91
2022/05/23 11:26:02;;;;;;;;;;;19.60;99.90;;;;;;6070880;23;19949;-90
2022/05/23 11:34:22;;;;;;;;;;;19.50;99.90;;;;;;6096281;23;20379;-94
2022/05/23 11:39:42;;;;;;;;;;;19.50;99.90;;;;;;6105818;23;19955;-92
2022/05/23 11:42:12;;;;;;;;;;;19.40;99.90;;;;;;6069622;23;19909;-90
2022/05/23 11:44:53;;;;;;;;;;;19.40;99.90;;;;;;6070258;23;19908;-92
2022/05/23 11:47:26;;;;;;;;;;;19.40;99.90;;;;;;6070935;23;19905;-91
2022/05/23 11:49:58;;;;;;;;;;;19.40;99.90;;;;;;6069474;23;19902;-88
2022/05/23 11:52:33;;;;;;;;;;;19.40;99.90;;;;;;6094695;23;19908;-88
2022/05/23 11:54:59;;;;;;;;;;;19.40;99.90;;;;;;6068938;23;20245;-88
2022/05/23 11:57:31;;;;;;;;;;;19.40;99.90;;;;;;6068869;23;19913;-88
2022/05/23 11:59:57;;;;;;;;;;;19.40;99.90;;;;;;6069826;23;19917;-87
2022/05/23 12:02:25;;;;;;;;;;;19.40;99.90;;;;;;6069143;23;20265;-87
2022/05/23 12:04:52;;;;;;;;;;;19.40;99.90;;;;;;6094819;23;19914;-88
2022/05/23 12:07:31;;;;;;;;;;;19.40;99.90;;;;;;6069099;23;19955;-88
2022/05/23 12:10:15;;;;;;;;;;;19.40;99.90;;;;;;6069521;23;20292;-89
2022/05/23 12:12:47;;;;;;;;;;;19.40;99.90;;;;;;6069122;23;19901;-89
2022/05/23 12:15:32;;;;;;;;;;;19.40;99.90;;;;;;6069008;23;20337;-89
2022/05/23 12:17:59;;;;;;;;;;;19.50;99.90;;;;;;6069040;23;20237;-89
2022/05/23 12:20:25;;;;;;;;;;;19.40;99.90;;;;;;6069051;23;19906;-88
2022/05/23 12:23:11;;;;;;;;;;;19.50;99.90;;;;;;6093767;23;19912;-89
2022/05/23 12:25:36;;;;;;;;;;;19.50;99.90;;;;;;6068953;23;19901;-88
2022/05/23 12:28:02;;;;;;;;;;;19.60;99.90;;;;;;6068390;23;19901;-89
2022/05/23 12:30:27;;;;;;;;;;;19.60;99.90;;;;;;6069132;23;19901;-90
2022/05/23 12:33:04;;;;;;;;;;;19.60;99.90;;;;;;6069253;23;19963;-89
2022/05/23 12:35:39;;;;;;;;;;;19.70;99.90;;;;;;6068835;23;19988;-89
2022/05/23 12:38:23;;;;;;;;;;;19.70;99.90;;;;;;6069660;23;19901;-91
2022/05/23 12:41:02;;;;;;;;;;;19.70;99.90;;;;;;6069512;23;19901;-90
2022/05/23 12:43:46;;;;;;;;;;;19.70;99.90;;;;;;6069686;23;19907;-91
2022/05/23 12:46:14;;;;;;;;;;;19.80;99.90;;;;;;6070281;23;19981;-91
2022/05/23 12:48:58;;;;;;;;;;;19.80;99.90;;;;;;6070438;23;19901;-93
2022/05/23 12:51:44;;;;;;;;;;;19.90;99.90;;;;;;6069897;23;19901;-95
2022/05/23 12:54:13;;;;;;;;;;;19.90;99.90;;;;;;6070846;23;19902;-93
2022/05/23 12:56:49;;;;;;;;;;;19.90;99.90;;;;;;6069332;23;20377;-91
2022/05/23 12:59:15;;;;;;;;;;;20.00;99.90;;;;;;6070575;23;19909;-92
2022/05/23 13:01:45;;;;;;;;;;;20.00;99.90;;;;;;6070922;23;20221;-93
2022/05/23 13:07:18;;;;;;;;;;;20.10;99.90;;;;;;6052547;23;19902;-89
2022/05/23 13:09:58;;;;;;;;;;;20.20;99.90;;;;;;6069664;23;19901;-90
2022/05/23 13:12:44;;;;;;;;;;;20.40;99.90;;;;;;6070348;23;20353;-91
2022/05/23 13:15:10;;;;;;;;;;;20.50;99.90;;;;;;6094243;23;19928;-94
2022/05/23 13:17:43;;;;;;;;;;;20.70;99.90;;;;;;6068735;23;19925;-89
2022/05/23 13:23:00;;;;;;;;;;;21.10;99.90;;;;;;6095238;23;19908;-92
2022/05/23 13:25:29;;;;;;;;;;;21.20;99.90;;;;;;6069196;23;19905;-91
2022/05/23 13:27:58;;;;;;;;;;;21.30;99.90;;;;;;6069676;23;19976;-91
2022/05/23 13:30:37;;;;;;;;;;;21.40;99.90;;;;;;6069765;23;20272;-94
2022/05/23 13:33:15;;;;;;;;;;;21.60;99.90;;;;;;6095157;23;19901;-90
2022/05/23 13:35:42;;;;;;;;;;;21.70;99.90;;;;;;6069732;23;19954;-91
2022/05/23 13:38:17;;;;;;;;;;;21.70;99.90;;;;;;6070033;23;19902;-91
2022/05/23 13:40:45;;;;;;;;;;;21.80;99.90;;;;;;6070121;23;19901;-91
2022/05/23 13:43:12;;;;;;;;;;;21.90;99.90;;;;;;6069793;23;19984;-92
2022/05/23 13:45:42;;;;;;;;;;;22.00;99.90;;;;;;6070160;23;19920;-93
2022/05/23 13:48:22;;;;;;;;;;;22.00;99.90;;;;;;6070356;23;19901;-92
2022/05/23 13:50:52;;;;;;;;;;;22.00;99.90;;;;;;6071707;23;19912;-91
2022/05/23 13:53:30;;;;;;;;;;;22.10;99.90;;;;;;6070846;23;19908;-92
2022/05/23 13:55:56;;;;;;;;;;;22.10;99.90;;;;;;6070500;23;19905;-91
2022/05/23 13:58:28;;;;;;;;;;;22.10;99.90;;;;;;6065707;23;19920;-91
2022/05/23 14:01:02;;;;;;;;;;;22.10;99.90;;;;;;6065489;23;20360;-93
2022/05/23 14:03:34;;;;;;;;;;;22.10;99.90;;;;;;6065699;23;19924;-91
2022/05/23 14:06:03;;;;;;;;;;;22.10;99.90;;;;;;6065423;23;20234;-92
2022/05/23 14:08:36;;;;;;;;;;;22.10;99.90;;;;;;6065598;23;19933;-91
2022/05/23 14:11:07;;;;;;;;;;;22.20;99.90;;;;;;6065604;23;19984;-90
2022/05/23 14:13:33;;;;;;;;;;;22.20;99.90;;;;;;6065534;23;19958;-92
2022/05/23 14:15:59;;;;;;;;;;;22.20;99.90;;;;;;6065302;23;19928;-89
2022/05/23 14:18:29;;;;;;;;;;;22.10;99.90;;;;;;6064812;23;19901;-89
2022/05/23 14:20:55;;;;;;;;;;;22.00;99.90;;;;;;6065210;23;19917;-89
2022/05/23 14:23:23;;;;;;;;;;;21.90;99.90;;;;;;6065133;23;20350;-89
2022/05/23 14:26:06;;;;;;;;;;;21.90;99.90;;;;;;6064795;23;19902;-91
2022/05/23 14:28:46;;;;;;;;;;;22.00;99.90;;;;;;6066754;23;19909;-90
2022/05/23 14:31:11;;;;;;;;;;;22.00;99.90;;;;;;6065005;23;19956;-88
2022/05/23 14:33:39;;;;;;;;;;;22.00;99.90;;;;;;6064825;23;19901;-89
2022/05/23 14:36:17;;;;;;;;;;;21.90;99.90;;;;;;6064431;23;19912;-86
2022/05/23 14:38:43;;;;;;;;;;;21.80;99.90;;;;;;6064910;23;19902;-90
2022/05/23 14:41:10;;;;;;;;;;;21.60;99.90;;;;;;6064752;23;19984;-90
2022/05/23 14:43:35;;;;;;;;;;;21.50;99.90;;;;;;6065141;23;19909;-89
2022/05/23 14:46:21;;;;;;;;;;;21.40;99.90;;;;;;6064768;23;19905;-90
2022/05/23 14:48:53;;;;;;;;;;;21.30;99.90;;;;;;6064679;23;20284;-90
2022/05/23 14:51:25;;;;;;;;;;;21.20;99.90;;;;;;6064643;23;19902;-89
2022/05/23 14:57:06;;;;;;;;;;;21.00;99.90;;;;;;6074005;23;20352;-89
2022/05/23 15:02:33;;;;;;;;;;;20.90;99.90;;;;;;6095121;23;19908;-89
2022/05/23 15:05:04;;;;;;;;;;;20.80;99.90;;;;;;6069513;23;19901;-90
2022/05/23 15:07:47;;;;;;;;;;;20.70;99.90;;;;;;6070432;23;19984;-89
2022/05/23 15:10:19;;;;;;;;;;;20.70;99.90;;;;;;6099877;23;20372;-89
2022/05/23 15:12:44;;;;;;;;;;;20.60;99.90;;;;;;6070355;23;19936;-89
2022/05/23 15:15:10;;;;;;;;;;;20.60;99.90;;;;;;6069290;23;19931;-88
2022/05/23 15:17:35;;;;;;;;;;;20.50;99.90;;;;;;6069158;23;20234;-88
2022/05/23 15:20:01;;;;;;;;;;;20.50;99.90;;;;;;6069255;23;19912;-88
2022/05/23 15:22:27;;;;;;;;;;;20.50;99.90;;;;;;6069139;23;19909;-89
2022/05/23 15:24:53;;;;;;;;;;;20.40;99.90;;;;;;6068963;23;19905;-88
2022/05/23 15:27:22;;;;;;;;;;;20.40;99.90;;;;;;6069235;23;20275;-88
2022/05/23 15:29:48;;;;;;;;;;;20.40;99.90;;;;;;6068976;23;19905;-89
2022/05/23 15:32:13;;;;;;;;;;;20.30;99.90;;;;;;6068783;23;19924;-88
2022/05/23 15:34:39;;;;;;;;;;;20.30;99.90;;;;;;6095067;23;20206;-88
2022/05/23 15:37:05;;;;;;;;;;;20.30;99.90;;;;;;6069045;23;19905;-88